sensor_id;sensor_type;location;lat;lon;timestamp;P1;durP1;ratioP1;P2;durP2;ratioP2
64543;SDS011;50936;51.660;5.616;2022-09-09T00:10:37;8.23;;;3.00;;
64543;SDS011;50936;51.660;5.616;2022-09-09T00:15:57;6.60;;;2.58;;
64543;SDS011;50936;51.660;5.616;2022-09-09T00:18:40;5.57;;;2.90;;
64543;SDS011;50936;51.660;5.616;2022-09-09T00:21:37;6.35;;;2.60;;
64543;SDS011;50936;51.660;5.616;2022-09-09T00:30:24;6.03;;;2.70;;
64543;SDS011;50936;51.660;5.616;2022-09-09T00:33:01;6.10;;;2.53;;
64543;SDS011;50936;51.660;5.616;2022-09-09T00:35:40;5.68;;;2.95;;
64543;SDS011;50936;51.660;5.616;2022-09-09T00:38:15;5.25;;;2.75;;
64543;SDS011;50936;51.660;5.616;2022-09-09T00:40:55;6.95;;;2.65;;
64543;SDS011;50936;51.660;5.616;2022-09-09T00:43:37;5.03;;;2.85;;
64543;SDS011;50936;51.660;5.616;2022-09-09T01:12:14;5.28;;;2.92;;
64543;SDS011;50936;51.660;5.616;2022-09-09T01:17:59;5.25;;;2.83;;
64543;SDS011;50936;51.660;5.616;2022-09-09T01:20:44;7.07;;;2.97;;
64543;SDS011;50936;51.660;5.616;2022-09-09T01:26:32;8.30;;;2.90;;
64543;SDS011;50936;51.660;5.616;2022-09-09T01:29:15;4.55;;;2.60;;
64543;SDS011;50936;51.660;5.616;2022-09-09T01:32:02;6.72;;;2.83;;
64543;SDS011;50936;51.660;5.616;2022-09-09T01:35:11;5.35;;;2.53;;
64543;SDS011;50936;51.660;5.616;2022-09-09T01:37:56;6.60;;;2.90;;
64543;SDS011;50936;51.660;5.616;2022-09-09T01:40:26;6.38;;;2.80;;
64543;SDS011;50936;51.660;5.616;2022-09-09T01:42:56;5.97;;;2.60;;
64543;SDS011;50936;51.660;5.616;2022-09-09T01:45:23;4.38;;;2.35;;
64543;SDS011;50936;51.660;5.616;2022-09-09T01:47:52;5.25;;;2.33;;
64543;SDS011;50936;51.660;5.616;2022-09-09T01:50:39;7.10;;;2.67;;
64543;SDS011;50936;51.660;5.616;2022-09-09T01:53:07;7.38;;;2.50;;
64543;SDS011;50936;51.660;5.616;2022-09-09T01:55:38;7.65;;;3.75;;
64543;SDS011;50936;51.660;5.616;2022-09-09T01:58:21;6.25;;;2.80;;
64543;SDS011;50936;51.660;5.616;2022-09-09T02:01:13;7.65;;;2.88;;
64543;SDS011;50936;51.660;5.616;2022-09-09T02:03:53;4.82;;;2.03;;
64543;SDS011;50936;51.660;5.616;2022-09-09T02:06:28;4.50;;;2.33;;
64543;SDS011;50936;51.660;5.616;2022-09-09T02:09:16;6.43;;;2.80;;
64543;SDS011;50936;51.660;5.616;2022-09-09T02:11:52;5.50;;;2.67;;
64543;SDS011;50936;51.660;5.616;2022-09-09T02:14:47;5.50;;;2.50;;
64543;SDS011;50936;51.660;5.616;2022-09-09T02:17:27;5.88;;;3.20;;
64543;SDS011;50936;51.660;5.616;2022-09-09T02:20:12;6.57;;;2.78;;
64543;SDS011;50936;51.660;5.616;2022-09-09T02:22:59;9.82;;;2.78;;
64543;SDS011;50936;51.660;5.616;2022-09-09T02:25:29;6.65;;;3.03;;
64543;SDS011;50936;51.660;5.616;2022-09-09T02:28:09;5.00;;;2.78;;
64543;SDS011;50936;51.660;5.616;2022-09-09T02:30:40;5.45;;;2.70;;
64543;SDS011;50936;51.660;5.616;2022-09-09T02:33:15;5.20;;;2.78;;
64543;SDS011;50936;51.660;5.616;2022-09-09T02:35:48;14.57;;;3.55;;
64543;SDS011;50936;51.660;5.616;2022-09-09T02:38:21;8.15;;;3.00;;
64543;SDS011;50936;51.660;5.616;2022-09-09T02:41:05;9.27;;;3.22;;
64543;SDS011;50936;51.660;5.616;2022-09-09T02:43:33;10.18;;;2.95;;
64543;SDS011;50936;51.660;5.616;2022-09-09T02:48:59;8.82;;;3.15;;
64543;SDS011;50936;51.660;5.616;2022-09-09T02:51:40;9.35;;;2.83;;
64543;SDS011;50936;51.660;5.616;2022-09-09T02:54:28;10.10;;;3.10;;
64543;SDS011;50936;51.660;5.616;2022-09-09T02:59:39;7.72;;;3.40;;
64543;SDS011;50936;51.660;5.616;2022-09-09T03:02:07;4.80;;;2.50;;
64543;SDS011;50936;51.660;5.616;2022-09-09T03:04:37;6.95;;;2.55;;
64543;SDS011;50936;51.660;5.616;2022-09-09T03:07:06;8.30;;;3.20;;
64543;SDS011;50936;51.660;5.616;2022-09-09T03:09:34;6.95;;;3.15;;
64543;SDS011;50936;51.660;5.616;2022-09-09T03:12:00;6.15;;;3.53;;
64543;SDS011;50936;51.660;5.616;2022-09-09T03:14:32;10.15;;;3.30;;
64543;SDS011;50936;51.660;5.616;2022-09-09T03:16:59;6.95;;;3.20;;
64543;SDS011;50936;51.660;5.616;2022-09-09T03:19:30;6.72;;;3.35;;
64543;SDS011;50936;51.660;5.616;2022-09-09T03:21:58;7.90;;;3.05;;
64543;SDS011;50936;51.660;5.616;2022-09-09T03:24:28;6.65;;;3.38;;
64543;SDS011;50936;51.660;5.616;2022-09-09T03:26:55;7.47;;;3.20;;
64543;SDS011;50936;51.660;5.616;2022-09-09T03:29:22;8.40;;;3.10;;
64543;SDS011;50936;51.660;5.616;2022-09-09T03:31:51;7.45;;;3.22;;
64543;SDS011;50936;51.660;5.616;2022-09-09T03:34:19;10.10;;;3.33;;
64543;SDS011;50936;51.660;5.616;2022-09-09T03:36:46;8.05;;;3.45;;
64543;SDS011;50936;51.660;5.616;2022-09-09T03:39:15;7.10;;;3.47;;
64543;SDS011;50936;51.660;5.616;2022-09-09T03:41:43;7.30;;;3.50;;
64543;SDS011;50936;51.660;5.616;2022-09-09T03:44:11;6.82;;;3.17;;
64543;SDS011;50936;51.660;5.616;2022-09-09T03:46:40;8.93;;;3.05;;
64543;SDS011;50936;51.660;5.616;2022-09-09T03:49:07;7.88;;;3.00;;
64543;SDS011;50936;51.660;5.616;2022-09-09T03:51:34;7.70;;;3.00;;
64543;SDS011;50936;51.660;5.616;2022-09-09T03:54:04;9.18;;;3.60;;
64543;SDS011;50936;51.660;5.616;2022-09-09T03:56:34;8.15;;;3.35;;
64543;SDS011;50936;51.660;5.616;2022-09-09T03:59:02;14.05;;;3.42;;
64543;SDS011;50936;51.660;5.616;2022-09-09T04:01:30;7.45;;;3.28;;
64543;SDS011;50936;51.660;5.616;2022-09-09T04:03:57;8.60;;;3.00;;
64543;SDS011;50936;51.660;5.616;2022-09-09T04:06:24;7.43;;;3.50;;
64543;SDS011;50936;51.660;5.616;2022-09-09T04:08:52;8.85;;;3.60;;
64543;SDS011;50936;51.660;5.616;2022-09-09T04:11:20;9.60;;;3.35;;
64543;SDS011;50936;51.660;5.616;2022-09-09T04:13:49;10.95;;;3.58;;
64543;SDS011;50936;51.660;5.616;2022-09-09T04:16:17;10.98;;;3.28;;
64543;SDS011;50936;51.660;5.616;2022-09-09T04:18:45;9.02;;;3.33;;
64543;SDS011;50936;51.660;5.616;2022-09-09T04:21:14;9.57;;;3.38;;
64543;SDS011;50936;51.660;5.616;2022-09-09T04:23:42;14.75;;;3.78;;
64543;SDS011;50936;51.660;5.616;2022-09-09T04:26:09;7.65;;;2.63;;
64543;SDS011;50936;51.660;5.616;2022-09-09T04:28:37;10.93;;;3.22;;
64543;SDS011;50936;51.660;5.616;2022-09-09T04:31:14;9.48;;;3.38;;
64543;SDS011;50936;51.660;5.616;2022-09-09T04:33:52;6.82;;;2.70;;
64543;SDS011;50936;51.660;5.616;2022-09-09T04:36:20;8.02;;;3.67;;
64543;SDS011;50936;51.660;5.616;2022-09-09T04:38:50;9.48;;;2.67;;
64543;SDS011;50936;51.660;5.616;2022-09-09T04:41:17;6.95;;;2.80;;
64543;SDS011;50936;51.660;5.616;2022-09-09T04:43:47;9.70;;;2.63;;
64543;SDS011;50936;51.660;5.616;2022-09-09T04:46:15;8.10;;;3.17;;
64543;SDS011;50936;51.660;5.616;2022-09-09T04:48:47;6.15;;;2.90;;
64543;SDS011;50936;51.660;5.616;2022-09-09T04:51:16;9.73;;;2.83;;
64543;SDS011;50936;51.660;5.616;2022-09-09T04:53:45;8.05;;;2.63;;
64543;SDS011;50936;51.660;5.616;2022-09-09T04:56:16;8.75;;;2.85;;
64543;SDS011;50936;51.660;5.616;2022-09-09T04:58:50;8.85;;;2.58;;
64543;SDS011;50936;51.660;5.616;2022-09-09T05:01:21;4.20;;;2.05;;
64543;SDS011;50936;51.660;5.616;2022-09-09T05:03:51;6.22;;;2.65;;
64543;SDS011;50936;51.660;5.616;2022-09-09T05:06:21;10.43;;;2.80;;
64543;SDS011;50936;51.660;5.616;2022-09-09T05:08:55;11.18;;;3.20;;
64543;SDS011;50936;51.660;5.616;2022-09-09T05:11:28;12.20;;;2.90;;
64543;SDS011;50936;51.660;5.616;2022-09-09T05:14:09;8.35;;;2.75;;
64543;SDS011;50936;51.660;5.616;2022-09-09T05:16:39;6.07;;;2.70;;
64543;SDS011;50936;51.660;5.616;2022-09-09T05:19:06;11.73;;;2.88;;
64543;SDS011;50936;51.660;5.616;2022-09-09T05:21:43;8.98;;;2.80;;
64543;SDS011;50936;51.660;5.616;2022-09-09T05:24:11;7.70;;;2.60;;
64543;SDS011;50936;51.660;5.616;2022-09-09T05:26:39;9.80;;;3.05;;
64543;SDS011;50936;51.660;5.616;2022-09-09T05:29:06;8.98;;;3.28;;
64543;SDS011;50936;51.660;5.616;2022-09-09T05:31:35;8.82;;;3.03;;
64543;SDS011;50936;51.660;5.616;2022-09-09T05:34:07;11.43;;;2.90;;
64543;SDS011;50936;51.660;5.616;2022-09-09T05:36:34;7.85;;;2.92;;
64543;SDS011;50936;51.660;5.616;2022-09-09T05:39:01;10.20;;;3.38;;
64543;SDS011;50936;51.660;5.616;2022-09-09T05:41:31;9.63;;;3.05;;
64543;SDS011;50936;51.660;5.616;2022-09-09T05:44:00;9.63;;;3.42;;
64543;SDS011;50936;51.660;5.616;2022-09-09T05:46:27;13.52;;;3.25;;
64543;SDS011;50936;51.660;5.616;2022-09-09T05:48:55;6.78;;;2.78;;
64543;SDS011;50936;51.660;5.616;2022-09-09T05:51:29;10.63;;;2.92;;
64543;SDS011;50936;51.660;5.616;2022-09-09T05:54:03;11.32;;;3.33;;
64543;SDS011;50936;51.660;5.616;2022-09-09T05:56:34;9.63;;;2.97;;
64543;SDS011;50936;51.660;5.616;2022-09-09T05:59:01;5.25;;;2.63;;
64543;SDS011;50936;51.660;5.616;2022-09-09T06:01:29;6.63;;;2.67;;
64543;SDS011;50936;51.660;5.616;2022-09-09T06:04:00;8.02;;;2.85;;
64543;SDS011;50936;51.660;5.616;2022-09-09T06:06:32;8.70;;;3.00;;
64543;SDS011;50936;51.660;5.616;2022-09-09T06:09:07;6.93;;;2.70;;
64543;SDS011;50936;51.660;5.616;2022-09-09T06:11:39;9.68;;;2.95;;
64543;SDS011;50936;51.660;5.616;2022-09-09T06:14:08;8.93;;;2.70;;
64543;SDS011;50936;51.660;5.616;2022-09-09T06:16:36;7.80;;;2.45;;
64543;SDS011;50936;51.660;5.616;2022-09-09T06:19:09;6.82;;;2.38;;
64543;SDS011;50936;51.660;5.616;2022-09-09T06:21:39;8.57;;;2.10;;
64543;SDS011;50936;51.660;5.616;2022-09-09T06:24:08;6.13;;;2.88;;
64543;SDS011;50936;51.660;5.616;2022-09-09T06:26:36;14.82;;;3.10;;
64543;SDS011;50936;51.660;5.616;2022-09-09T06:29:09;7.25;;;2.67;;
64543;SDS011;50936;51.660;5.616;2022-09-09T06:31:36;5.97;;;2.50;;
64543;SDS011;50936;51.660;5.616;2022-09-09T06:34:11;6.45;;;2.00;;
64543;SDS011;50936;51.660;5.616;2022-09-09T06:36:41;10.25;;;3.00;;
64543;SDS011;50936;51.660;5.616;2022-09-09T06:39:08;9.30;;;2.40;;
64543;SDS011;50936;51.660;5.616;2022-09-09T06:41:40;9.25;;;2.88;;
64543;SDS011;50936;51.660;5.616;2022-09-09T06:44:29;16.05;;;3.05;;
64543;SDS011;50936;51.660;5.616;2022-09-09T06:47:01;10.82;;;3.65;;
64543;SDS011;50936;51.660;5.616;2022-09-09T06:49:30;8.43;;;2.70;;
64543;SDS011;50936;51.660;5.616;2022-09-09T06:51:58;7.85;;;3.13;;
64543;SDS011;50936;51.660;5.616;2022-09-09T06:54:25;7.65;;;3.28;;
64543;SDS011;50936;51.660;5.616;2022-09-09T06:56:52;14.27;;;2.90;;
64543;SDS011;50936;51.660;5.616;2022-09-09T06:59:22;11.75;;;3.10;;
64543;SDS011;50936;51.660;5.616;2022-09-09T07:01:52;12.07;;;2.97;;
64543;SDS011;50936;51.660;5.616;2022-09-09T07:04:22;8.02;;;2.55;;
64543;SDS011;50936;51.660;5.616;2022-09-09T07:06:49;8.30;;;3.15;;
64543;SDS011;50936;51.660;5.616;2022-09-09T07:09:20;8.38;;;3.05;;
64543;SDS011;50936;51.660;5.616;2022-09-09T07:11:50;6.78;;;3.30;;
64543;SDS011;50936;51.660;5.616;2022-09-09T07:14:21;8.73;;;2.60;;
64543;SDS011;50936;51.660;5.616;2022-09-09T07:16:53;10.88;;;2.63;;
64543;SDS011;50936;51.660;5.616;2022-09-09T07:19:26;8.98;;;2.63;;
64543;SDS011;50936;51.660;5.616;2022-09-09T07:21:54;10.90;;;2.50;;
64543;SDS011;50936;51.660;5.616;2022-09-09T07:24:23;8.27;;;2.90;;
64543;SDS011;50936;51.660;5.616;2022-09-09T07:26:50;13.43;;;2.97;;
64543;SDS011;50936;51.660;5.616;2022-09-09T07:29:19;8.43;;;2.22;;
64543;SDS011;50936;51.660;5.616;2022-09-09T07:31:47;7.57;;;2.10;;
64543;SDS011;50936;51.660;5.616;2022-09-09T07:34:19;10.25;;;1.90;;
64543;SDS011;50936;51.660;5.616;2022-09-09T07:36:46;7.13;;;2.72;;
64543;SDS011;50936;51.660;5.616;2022-09-09T07:39:15;6.78;;;2.00;;
64543;SDS011;50936;51.660;5.616;2022-09-09T07:41:48;6.97;;;2.10;;
64543;SDS011;50936;51.660;5.616;2022-09-09T07:44:21;8.32;;;2.45;;
64543;SDS011;50936;51.660;5.616;2022-09-09T07:47:01;6.57;;;2.53;;
64543;SDS011;50936;51.660;5.616;2022-09-09T07:49:35;7.55;;;2.25;;
64543;SDS011;50936;51.660;5.616;2022-09-09T07:52:03;7.28;;;2.20;;
64543;SDS011;50936;51.660;5.616;2022-09-09T07:54:31;6.40;;;1.95;;
64543;SDS011;50936;51.660;5.616;2022-09-09T07:57:00;7.35;;;2.10;;
64543;SDS011;50936;51.660;5.616;2022-09-09T07:59:29;8.52;;;2.42;;
64543;SDS011;50936;51.660;5.616;2022-09-09T08:01:57;11.52;;;2.40;;
64543;SDS011;50936;51.660;5.616;2022-09-09T08:04:28;7.85;;;1.92;;
64543;SDS011;50936;51.660;5.616;2022-09-09T08:06:59;6.82;;;1.95;;
64543;SDS011;50936;51.660;5.616;2022-09-09T08:09:33;8.35;;;2.40;;
64543;SDS011;50936;51.660;5.616;2022-09-09T08:12:06;6.10;;;2.03;;
64543;SDS011;50936;51.660;5.616;2022-09-09T08:14:34;6.95;;;1.75;;
64543;SDS011;50936;51.660;5.616;2022-09-09T08:17:01;8.23;;;2.13;;
64543;SDS011;50936;51.660;5.616;2022-09-09T08:19:30;8.70;;;2.00;;
64543;SDS011;50936;51.660;5.616;2022-09-09T08:22:01;4.28;;;1.45;;
64543;SDS011;50936;51.660;5.616;2022-09-09T08:24:31;9.98;;;2.40;;
64543;SDS011;50936;51.660;5.616;2022-09-09T08:26:58;5.80;;;2.20;;
64543;SDS011;50936;51.660;5.616;2022-09-09T08:29:26;8.40;;;2.17;;
64543;SDS011;50936;51.660;5.616;2022-09-09T08:31:56;11.18;;;2.63;;
64543;SDS011;50936;51.660;5.616;2022-09-09T08:34:25;6.57;;;1.95;;
64543;SDS011;50936;51.660;5.616;2022-09-09T08:36:55;9.13;;;2.30;;
64543;SDS011;50936;51.660;5.616;2022-09-09T08:39:28;5.97;;;2.05;;
64543;SDS011;50936;51.660;5.616;2022-09-09T08:53:05;9.80;;;2.10;;
64543;SDS011;50936;51.660;5.616;2022-09-09T08:55:56;8.48;;;2.20;;
64543;SDS011;50936;51.660;5.616;2022-09-09T08:58:41;7.78;;;1.90;;
64543;SDS011;50936;51.660;5.616;2022-09-09T09:01:21;5.05;;;1.65;;
64543;SDS011;50936;51.660;5.616;2022-09-09T09:10:14;7.28;;;1.83;;
64543;SDS011;50936;51.660;5.616;2022-09-09T09:15:55;8.23;;;2.03;;
64543;SDS011;50936;51.660;5.616;2022-09-09T09:18:33;5.22;;;1.92;;
64543;SDS011;50936;51.660;5.616;2022-09-09T09:21:12;9.15;;;1.80;;
64543;SDS011;50936;51.660;5.616;2022-09-09T09:23:59;9.68;;;2.20;;
64543;SDS011;50936;51.660;5.616;2022-09-09T09:26:33;5.45;;;2.03;;
64543;SDS011;50936;51.660;5.616;2022-09-09T09:29:12;7.88;;;1.98;;
64543;SDS011;50936;51.660;5.616;2022-09-09T09:31:48;7.10;;;2.00;;
64543;SDS011;50936;51.660;5.616;2022-09-09T09:34:25;6.50;;;2.05;;
64543;SDS011;50936;51.660;5.616;2022-09-09T09:36:58;13.32;;;2.42;;
64543;SDS011;50936;51.660;5.616;2022-09-09T09:39:33;5.68;;;2.08;;
64543;SDS011;50936;51.660;5.616;2022-09-09T09:42:26;7.43;;;2.42;;
64543;SDS011;50936;51.660;5.616;2022-09-09T09:44:55;5.43;;;2.03;;
64543;SDS011;50936;51.660;5.616;2022-09-09T09:47:22;4.38;;;1.75;;
64543;SDS011;50936;51.660;5.616;2022-09-09T09:50:16;6.55;;;2.22;;
64543;SDS011;50936;51.660;5.616;2022-09-09T09:52:54;8.00;;;1.98;;
64543;SDS011;50936;51.660;5.616;2022-09-09T09:55:26;5.57;;;2.13;;
64543;SDS011;50936;51.660;5.616;2022-09-09T10:00:33;9.52;;;2.13;;
64543;SDS011;50936;51.660;5.616;2022-09-09T10:03:21;8.98;;;2.50;;
64543;SDS011;50936;51.660;5.616;2022-09-09T10:05:51;11.05;;;2.15;;
64543;SDS011;50936;51.660;5.616;2022-09-09T10:08:19;6.43;;;1.85;;
64543;SDS011;50936;51.660;5.616;2022-09-09T10:13:48;7.15;;;1.98;;
64543;SDS011;50936;51.660;5.616;2022-09-09T10:33:41;8.63;;;2.30;;
64543;SDS011;50936;51.660;5.616;2022-09-09T10:36:25;5.93;;;2.33;;
64543;SDS011;50936;51.660;5.616;2022-09-09T10:39:06;6.70;;;2.28;;
64543;SDS011;50936;51.660;5.616;2022-09-09T10:42:06;9.73;;;2.47;;
64543;SDS011;50936;51.660;5.616;2022-09-09T10:50:40;6.47;;;2.30;;
64543;SDS011;50936;51.660;5.616;2022-09-09T10:56:27;7.18;;;2.28;;
64543;SDS011;50936;51.660;5.616;2022-09-09T11:07:10;10.90;;;2.63;;
64543;SDS011;50936;51.660;5.616;2022-09-09T11:09:49;8.30;;;2.67;;
64543;SDS011;50936;51.660;5.616;2022-09-09T11:12:26;4.57;;;2.38;;
64543;SDS011;50936;51.660;5.616;2022-09-09T11:15:03;6.88;;;2.72;;
64543;SDS011;50936;51.660;5.616;2022-09-09T11:17:40;7.70;;;2.75;;
64543;SDS011;50936;51.660;5.616;2022-09-09T11:20:15;6.00;;;2.65;;
64543;SDS011;50936;51.660;5.616;2022-09-09T11:22:44;10.20;;;3.20;;
64543;SDS011;50936;51.660;5.616;2022-09-09T11:25:23;8.38;;;3.13;;
64543;SDS011;50936;51.660;5.616;2022-09-09T11:37:04;10.60;;;3.13;;
64543;SDS011;50936;51.660;5.616;2022-09-09T11:42:43;8.23;;;2.65;;
64543;SDS011;50936;51.660;5.616;2022-09-09T11:45:15;7.60;;;2.40;;
64543;SDS011;50936;51.660;5.616;2022-09-09T11:47:52;4.70;;;2.08;;
64543;SDS011;50936;51.660;5.616;2022-09-09T11:52:49;9.20;;;2.70;;
64543;SDS011;50936;51.660;5.616;2022-09-09T11:55:35;7.60;;;2.65;;
64543;SDS011;50936;51.660;5.616;2022-09-09T11:58:03;5.57;;;1.95;;
64543;SDS011;50936;51.660;5.616;2022-09-09T12:00:43;3.15;;;1.85;;
64543;SDS011;50936;51.660;5.616;2022-09-09T12:06:20;4.57;;;2.20;;
64543;SDS011;50936;51.660;5.616;2022-09-09T12:09:05;4.47;;;2.03;;
64543;SDS011;50936;51.660;5.616;2022-09-09T12:11:52;5.65;;;2.28;;
64543;SDS011;50936;51.660;5.616;2022-09-09T12:14:34;8.32;;;2.67;;
64543;SDS011;50936;51.660;5.616;2022-09-09T12:17:25;3.88;;;1.90;;
64543;SDS011;50936;51.660;5.616;2022-09-09T12:28:46;4.22;;;2.13;;
64543;SDS011;50936;51.660;5.616;2022-09-09T12:31:23;9.85;;;2.85;;
64543;SDS011;50936;51.660;5.616;2022-09-09T12:34:16;5.50;;;2.42;;
64543;SDS011;50936;51.660;5.616;2022-09-09T12:36:53;10.20;;;2.90;;
64543;SDS011;50936;51.660;5.616;2022-09-09T12:39:30;7.20;;;2.67;;
64543;SDS011;50936;51.660;5.616;2022-09-09T12:42:04;4.95;;;1.80;;
64543;SDS011;50936;51.660;5.616;2022-09-09T12:44:31;4.80;;;2.00;;
64543;SDS011;50936;51.660;5.616;2022-09-09T12:47:00;5.43;;;1.98;;
64543;SDS011;50936;51.660;5.616;2022-09-09T12:52:03;8.35;;;2.78;;
64543;SDS011;50936;51.660;5.616;2022-09-09T12:54:34;8.52;;;2.50;;
64543;SDS011;50936;51.660;5.616;2022-09-09T12:57:04;4.38;;;2.10;;
64543;SDS011;50936;51.660;5.616;2022-09-09T12:59:37;7.25;;;2.70;;
64543;SDS011;50936;51.660;5.616;2022-09-09T13:02:20;6.55;;;2.22;;
64543;SDS011;50936;51.660;5.616;2022-09-09T13:04:51;5.00;;;1.85;;
64543;SDS011;50936;51.660;5.616;2022-09-09T13:07:20;4.38;;;1.92;;
64543;SDS011;50936;51.660;5.616;2022-09-09T13:09:48;7.38;;;2.28;;
64543;SDS011;50936;51.660;5.616;2022-09-09T13:12:16;4.43;;;2.03;;
64543;SDS011;50936;51.660;5.616;2022-09-09T13:14:47;5.78;;;2.47;;
64543;SDS011;50936;51.660;5.616;2022-09-09T13:17:23;6.72;;;2.15;;
64543;SDS011;50936;51.660;5.616;2022-09-09T13:19:55;7.18;;;2.33;;
64543;SDS011;50936;51.660;5.616;2022-09-09T13:22:29;5.70;;;2.28;;
64543;SDS011;50936;51.660;5.616;2022-09-09T13:27:32;9.27;;;3.50;;
64543;SDS011;50936;51.660;5.616;2022-09-09T13:30:21;5.95;;;2.40;;
64543;SDS011;50936;51.660;5.616;2022-09-09T13:33:00;10.07;;;4.03;;
64543;SDS011;50936;51.660;5.616;2022-09-09T13:35:29;8.48;;;3.20;;
64543;SDS011;50936;51.660;5.616;2022-09-09T13:37:58;11.65;;;4.47;;
64543;SDS011;50936;51.660;5.616;2022-09-09T13:40:34;9.93;;;3.55;;
64543;SDS011;50936;51.660;5.616;2022-09-09T13:43:03;7.80;;;3.90;;
64543;SDS011;50936;51.660;5.616;2022-09-09T13:45:31;7.70;;;3.35;;
64543;SDS011;50936;51.660;5.616;2022-09-09T13:48:08;9.25;;;3.50;;
64543;SDS011;50936;51.660;5.616;2022-09-09T13:50:36;7.25;;;3.33;;
64543;SDS011;50936;51.660;5.616;2022-09-09T13:53:04;7.85;;;2.50;;
64543;SDS011;50936;51.660;5.616;2022-09-09T13:55:31;7.80;;;3.20;;
64543;SDS011;50936;51.660;5.616;2022-09-09T13:57:59;8.95;;;3.08;;
64543;SDS011;50936;51.660;5.616;2022-09-09T14:00:29;6.45;;;2.58;;
64543;SDS011;50936;51.660;5.616;2022-09-09T14:02:59;6.38;;;2.88;;
64543;SDS011;50936;51.660;5.616;2022-09-09T14:05:29;7.00;;;2.38;;
64543;SDS011;50936;51.660;5.616;2022-09-09T14:07:59;5.13;;;2.10;;
64543;SDS011;50936;51.660;5.616;2022-09-09T14:10:29;8.68;;;2.33;;
64543;SDS011;50936;51.660;5.616;2022-09-09T14:12:56;4.97;;;2.25;;
64543;SDS011;50936;51.660;5.616;2022-09-09T14:15:23;4.55;;;2.00;;
64543;SDS011;50936;51.660;5.616;2022-09-09T14:17:50;4.40;;;1.70;;
64543;SDS011;50936;51.660;5.616;2022-09-09T14:20:18;4.15;;;1.65;;
64543;SDS011;50936;51.660;5.616;2022-09-09T14:22:45;5.45;;;1.70;;
64543;SDS011;50936;51.660;5.616;2022-09-09T14:25:12;4.07;;;1.60;;
64543;SDS011;50936;51.660;5.616;2022-09-09T14:27:40;6.72;;;1.98;;
64543;SDS011;50936;51.660;5.616;2022-09-09T14:30:08;3.65;;;1.80;;
64543;SDS011;50936;51.660;5.616;2022-09-09T14:32:35;5.93;;;1.80;;
64543;SDS011;50936;51.660;5.616;2022-09-09T14:35:02;4.75;;;2.00;;
64543;SDS011;50936;51.660;5.616;2022-09-09T14:37:30;4.68;;;2.10;;
64543;SDS011;50936;51.660;5.616;2022-09-09T14:39:57;6.68;;;1.80;;
64543;SDS011;50936;51.660;5.616;2022-09-09T14:42:25;4.72;;;1.92;;
64543;SDS011;50936;51.660;5.616;2022-09-09T14:44:53;6.78;;;2.20;;
64543;SDS011;50936;51.660;5.616;2022-09-09T14:47:20;4.82;;;1.80;;
64543;SDS011;50936;51.660;5.616;2022-09-09T14:49:46;3.28;;;1.70;;
64543;SDS011;50936;51.660;5.616;2022-09-09T14:52:15;8.00;;;2.20;;
64543;SDS011;50936;51.660;5.616;2022-09-09T14:54:42;9.10;;;2.40;;
64543;SDS011;50936;51.660;5.616;2022-09-09T14:57:09;5.20;;;1.85;;
64543;SDS011;50936;51.660;5.616;2022-09-09T14:59:36;7.43;;;1.85;;
64543;SDS011;50936;51.660;5.616;2022-09-09T15:02:03;4.72;;;1.90;;
64543;SDS011;50936;51.660;5.616;2022-09-09T15:04:32;5.28;;;1.77;;
64543;SDS011;50936;51.660;5.616;2022-09-09T15:06:59;6.03;;;2.20;;
64543;SDS011;50936;51.660;5.616;2022-09-09T15:09:25;7.68;;;2.28;;
64543;SDS011;50936;51.660;5.616;2022-09-09T15:11:52;6.70;;;1.90;;
64543;SDS011;50936;51.660;5.616;2022-09-09T15:14:19;5.65;;;2.30;;
64543;SDS011;50936;51.660;5.616;2022-09-09T15:16:50;7.10;;;2.55;;
64543;SDS011;50936;51.660;5.616;2022-09-09T15:19:17;5.00;;;2.22;;
64543;SDS011;50936;51.660;5.616;2022-09-09T15:21:44;4.82;;;2.03;;
64543;SDS011;50936;51.660;5.616;2022-09-09T15:24:11;5.32;;;2.03;;
64543;SDS011;50936;51.660;5.616;2022-09-09T15:26:39;6.38;;;2.08;;
64543;SDS011;50936;51.660;5.616;2022-09-09T15:29:07;5.82;;;2.22;;
64543;SDS011;50936;51.660;5.616;2022-09-09T15:31:35;5.72;;;2.38;;
64543;SDS011;50936;51.660;5.616;2022-09-09T15:34:04;5.88;;;2.42;;
64543;SDS011;50936;51.660;5.616;2022-09-09T15:36:34;6.72;;;1.73;;
64543;SDS011;50936;51.660;5.616;2022-09-09T15:39:09;7.32;;;2.42;;
64543;SDS011;50936;51.660;5.616;2022-09-09T15:41:39;4.45;;;2.00;;
64543;SDS011;50936;51.660;5.616;2022-09-09T15:44:06;3.67;;;1.55;;
64543;SDS011;50936;51.660;5.616;2022-09-09T15:46:35;1.73;;;1.40;;
64543;SDS011;50936;51.660;5.616;2022-09-09T15:49:42;2.65;;;1.60;;
64543;SDS011;50936;51.660;5.616;2022-09-09T15:52:02;5.15;;;2.17;;
64543;SDS011;50936;51.660;5.616;2022-09-09T15:54:34;4.50;;;2.00;;
64543;SDS011;50936;51.660;5.616;2022-09-09T15:57:05;4.30;;;1.88;;
64543;SDS011;50936;51.660;5.616;2022-09-09T15:59:37;4.90;;;1.95;;
64543;SDS011;50936;51.660;5.616;2022-09-09T16:02:04;4.22;;;2.15;;
64543;SDS011;50936;51.660;5.616;2022-09-09T16:04:31;3.13;;;1.90;;
64543;SDS011;50936;51.660;5.616;2022-09-09T16:07:03;5.93;;;2.38;;
64543;SDS011;50936;51.660;5.616;2022-09-09T16:09:31;4.13;;;2.30;;
64543;SDS011;50936;51.660;5.616;2022-09-09T16:12:00;5.40;;;2.70;;
64543;SDS011;50936;51.660;5.616;2022-09-09T16:14:33;7.03;;;2.92;;
64543;SDS011;50936;51.660;5.616;2022-09-09T16:17:02;5.47;;;2.70;;
64543;SDS011;50936;51.660;5.616;2022-09-09T16:19:31;6.03;;;2.60;;
64543;SDS011;50936;51.660;5.616;2022-09-09T16:22:00;3.65;;;1.98;;
64543;SDS011;50936;51.660;5.616;2022-09-09T16:24:29;3.63;;;1.73;;
64543;SDS011;50936;51.660;5.616;2022-09-09T16:26:56;3.72;;;1.70;;
64543;SDS011;50936;51.660;5.616;2022-09-09T16:29:23;3.40;;;1.55;;
64543;SDS011;50936;51.660;5.616;2022-09-09T16:31:53;2.90;;;1.40;;
64543;SDS011;50936;51.660;5.616;2022-09-09T16:34:28;4.80;;;1.90;;
64543;SDS011;50936;51.660;5.616;2022-09-09T16:36:54;3.28;;;1.73;;
64543;SDS011;50936;51.660;5.616;2022-09-09T16:39:22;6.72;;;2.30;;
64543;SDS011;50936;51.660;5.616;2022-09-09T16:41:49;5.05;;;2.63;;
64543;SDS011;50936;51.660;5.616;2022-09-09T16:44:16;5.75;;;2.85;;
64543;SDS011;50936;51.660;5.616;2022-09-09T16:46:45;7.93;;;2.97;;
64543;SDS011;50936;51.660;5.616;2022-09-09T16:49:15;5.45;;;2.92;;
64543;SDS011;50936;51.660;5.616;2022-09-09T16:51:46;5.97;;;3.10;;
64543;SDS011;50936;51.660;5.616;2022-09-09T16:54:19;5.43;;;2.58;;
64543;SDS011;50936;51.660;5.616;2022-09-09T16:56:47;4.63;;;2.90;;
64543;SDS011;50936;51.660;5.616;2022-09-09T16:59:18;4.13;;;2.10;;
64543;SDS011;50936;51.660;5.616;2022-09-09T17:01:49;5.22;;;2.45;;
64543;SDS011;50936;51.660;5.616;2022-09-09T17:04:19;5.97;;;2.85;;
64543;SDS011;50936;51.660;5.616;2022-09-09T17:06:53;8.00;;;3.20;;
64543;SDS011;50936;51.660;5.616;2022-09-09T17:09:22;7.63;;;3.35;;
64543;SDS011;50936;51.660;5.616;2022-09-09T17:11:53;5.30;;;3.45;;
64543;SDS011;50936;51.660;5.616;2022-09-09T17:14:21;9.10;;;3.70;;
64543;SDS011;50936;51.660;5.616;2022-09-09T17:16:48;8.63;;;4.03;;
64543;SDS011;50936;51.660;5.616;2022-09-09T17:19:16;6.72;;;3.72;;
64543;SDS011;50936;51.660;5.616;2022-09-09T17:21:43;6.13;;;3.80;;
64543;SDS011;50936;51.660;5.616;2022-09-09T17:24:33;5.55;;;3.67;;
64543;SDS011;50936;51.660;5.616;2022-09-09T17:27:00;10.18;;;5.93;;
64543;SDS011;50936;51.660;5.616;2022-09-09T17:29:28;7.35;;;4.70;;
64543;SDS011;50936;51.660;5.616;2022-09-09T17:31:55;8.20;;;5.03;;
64543;SDS011;50936;51.660;5.616;2022-09-09T17:34:22;7.53;;;4.88;;
64543;SDS011;50936;51.660;5.616;2022-09-09T17:36:51;9.32;;;5.00;;
64543;SDS011;50936;51.660;5.616;2022-09-09T17:39:18;7.78;;;3.88;;
64543;SDS011;50936;51.660;5.616;2022-09-09T17:41:45;10.70;;;4.50;;
64543;SDS011;50936;51.660;5.616;2022-09-09T17:44:12;6.53;;;3.95;;